Time;durP1;ratioP1;P1;durP2;ratioP2;P2;SDS_P1;SDS_P2;PMS_P1;PMS_P2;Temp;Humidity;BMP_temperature;BMP_pressure;BME280_temperature;BME280_humidity;BME280_pressure;Samples;Min_cycle;Max_cycle;Signal;HPM_P1;HPM_P2
2024/01/06 00:01:10;;;;;;;;;;;;;;;-0.40;70.99;99847.38;110081;1280;23071;-80
2024/01/06 00:03:36;;;;;;;;;;;;;;;-0.39;71.41;99847.74;110112;1280;23157;-79
2024/01/06 00:06:03;;;;;;;;;;;;;;;-0.36;71.37;99846.75;109776;1286;23233;-79
2024/01/06 00:08:29;;;;;;;;;;;;;;;-0.34;71.52;99852.54;109629;1289;23157;-80
2024/01/06 00:10:55;;;;;;;;;;;;;;;-0.36;71.33;99852.83;109609;1289;22885;-80
2024/01/06 00:13:21;;;;;;;;;;;;;;;-0.36;71.53;99855.25;109535;1287;22402;-80
2024/01/06 00:15:48;;;;;;;;;;;;;;;-0.37;71.45;99850.04;109573;1289;22446;-78
2024/01/06 00:18:14;;;;;;;;;;;;;;;-0.37;71.67;99851.07;109592;1284;22448;-80
2024/01/06 00:20:40;;;;;;;;;;;;;;;-0.38;71.75;99855.20;109572;1284;23204;-79
2024/01/06 00:23:06;;;;;;;;;;;;;;;-0.41;71.90;99857.21;109646;1285;22459;-79
2024/01/06 00:25:33;;;;;;;;;;;;;;;-0.41;71.81;99863.59;109877;1285;22566;-80
2024/01/06 00:27:59;;;;;;;;;;;;;;;-0.41;71.89;99863.61;109811;1286;22457;-79
2024/01/06 00:30:25;;;;;;;;;;;;;;;-0.40;72.01;99857.91;109792;1280;22403;-80
2024/01/06 00:32:52;;;;;;;;;;;;;;;-0.36;72.30;99860.10;109833;1280;22421;-79
2024/01/06 00:35:18;;;;;;;;;;;;;;;-0.31;72.48;99859.00;110058;1278;22375;-80
2024/01/06 00:37:44;;;;;;;;;;;;;;;-0.28;72.46;99857.52;110052;1280;22421;-80
2024/01/06 00:40:10;;;;;;;;;;;;;;;-0.27;72.32;99860.14;110112;1280;22400;-79
2024/01/06 00:42:37;;;;;;;;;;;;;;;-0.30;72.48;99855.92;110084;1280;23241;-80
2024/01/06 00:45:04;;;;;;;;;;;;;;;-0.31;72.45;99854.69;110141;1280;22363;-79
2024/01/06 00:47:30;;;;;;;;;;;;;;;-0.34;72.59;99855.14;110069;1280;22386;-80
2024/01/06 00:49:56;;;;;;;;;;;;;;;-0.32;72.94;99855.19;110047;1274;22506;-82
2024/01/06 00:52:22;;;;;;;;;;;;;;;-0.32;72.89;99849.13;110014;1280;23108;-81
2024/01/06 00:54:49;;;;;;;;;;;;;;;-0.33;72.69;99841.30;110114;1275;22419;-81
2024/01/06 00:57:15;;;;;;;;;;;;;;;-0.40;72.76;99836.30;110027;1279;22472;-80
2024/01/06 00:59:41;;;;;;;;;;;;;;;-0.45;72.76;99836.16;110062;1273;22376;-80
2024/01/06 01:02:07;;;;;;;;;;;;;;;-0.53;72.69;99836.63;110026;1280;22356;-79
2024/01/06 01:04:33;;;;;;;;;;;;;;;-0.60;72.63;99831.42;110072;1275;22364;-81
2024/01/06 01:06:59;;;;;;;;;;;;;;;-0.70;72.64;99824.73;110121;1280;23094;-80
2024/01/06 01:09:25;;;;;;;;;;;;;;;-0.75;72.96;99814.94;110056;1278;22380;-80
2024/01/06 01:11:52;;;;;;;;;;;;;;;-0.79;72.66;99815.19;110121;1280;22390;-80
2024/01/06 01:14:18;;;;;;;;;;;;;;;-0.82;72.93;99809.04;110023;1280;22429;-79
2024/01/06 01:16:44;;;;;;;;;;;;;;;-0.86;72.94;99813.78;109872;1285;22438;-80
2024/01/06 01:19:10;;;;;;;;;;;;;;;-0.89;73.11;99823.04;109854;1282;22448;-80
2024/01/06 01:21:36;;;;;;;;;;;;;;;-0.90;73.25;99826.80;109775;1285;22540;-80
2024/01/06 01:24:03;;;;;;;;;;;;;;;-0.90;73.27;99828.20;109855;1285;22378;-79
2024/01/06 01:26:29;;;;;;;;;;;;;;;-0.91;73.51;99831.10;109758;1280;22369;-80
2024/01/06 01:28:55;;;;;;;;;;;;;;;-0.88;73.56;99833.25;109857;1282;22433;-79
2024/01/06 01:31:21;;;;;;;;;;;;;;;-0.87;73.55;99838.83;109759;1285;22400;-79
2024/01/06 01:33:48;;;;;;;;;;;;;;;-0.88;73.51;99841.05;109783;1280;22506;-79
2024/01/06 01:36:14;;;;;;;;;;;;;;;-0.89;73.42;99844.29;110023;1280;22388;-80
2024/01/06 01:38:40;;;;;;;;;;;;;;;-0.89;73.58;99842.73;110108;1275;22374;-79
2024/01/06 01:41:06;;;;;;;;;;;;;;;-0.92;73.22;99839.88;110093;1276;23027;-79
2024/01/06 01:43:32;;;;;;;;;;;;;;;-1.00;73.17;99837.27;110099;1280;22359;-80
2024/01/06 01:45:58;;;;;;;;;;;;;;;-1.01;73.42;99832.39;110050;1278;22378;-80
2024/01/06 01:48:25;;;;;;;;;;;;;;;-0.97;73.59;99830.90;110043;1275;22483;-81
2024/01/06 01:50:52;;;;;;;;;;;;;;;-0.95;73.51;99825.98;110035;1280;22402;-80
2024/01/06 01:53:19;;;;;;;;;;;;;;;-0.92;73.74;99824.85;110071;1272;23140;-80
2024/01/06 01:55:46;;;;;;;;;;;;;;;-0.86;73.94;99827.77;110033;1279;22364;-80
2024/01/06 01:58:13;;;;;;;;;;;;;;;-0.82;73.72;99829.30;110003;1279;22415;-80
2024/01/06 02:00:39;;;;;;;;;;;;;;;-0.81;73.48;99829.48;110121;1279;22356;-81
2024/01/06 02:03:07;;;;;;;;;;;;;;;-0.82;73.40;99825.48;110213;1276;23175;-79
2024/01/06 02:05:33;;;;;;;;;;;;;;;-0.84;73.19;99825.92;110115;1278;22476;-79
2024/01/06 02:07:59;;;;;;;;;;;;;;;-0.84;73.24;99828.52;110127;1272;22436;-79
2024/01/06 02:10:26;;;;;;;;;;;;;;;-0.88;73.04;99826.70;110133;1277;22397;-79
2024/01/06 02:12:52;;;;;;;;;;;;;;;-0.92;72.86;99826.20;110114;1279;23190;-79
2024/01/06 02:15:18;;;;;;;;;;;;;;;-0.96;72.87;99828.70;110018;1279;22369;-80
2024/01/06 02:17:45;;;;;;;;;;;;;;;-1.00;72.81;99826.88;110222;1279;22356;-78
2024/01/06 02:20:11;;;;;;;;;;;;;;;-0.98;72.90;99821.73;110108;1279;22426;-80
2024/01/06 02:22:37;;;;;;;;;;;;;;;-0.96;72.81;99817.80;110015;1279;22388;-80
2024/01/06 02:25:07;;;;;;;;;;;;;;;-0.95;72.69;99814.21;110207;1277;22412;-86
2024/01/06 02:27:33;;;;;;;;;;;;;;;-0.97;72.65;99807.42;110101;1279;22376;-80
2024/01/06 02:29:59;;;;;;;;;;;;;;;-0.94;72.79;99802.81;110090;1277;22459;-80
2024/01/06 02:32:26;;;;;;;;;;;;;;;-0.91;72.94;99799.80;110121;1279;22383;-79
2024/01/06 02:34:52;;;;;;;;;;;;;;;-0.89;72.80;99796.92;110117;1279;22381;-80
2024/01/06 02:37:18;;;;;;;;;;;;;;;-0.90;72.64;99794.65;109996;1279;22475;-80
2024/01/06 02:39:44;;;;;;;;;;;;;;;-0.92;72.74;99797.88;110031;1278;22430;-82
2024/01/06 02:42:10;;;;;;;;;;;;;;;-0.91;72.70;99799.98;109942;1280;22404;-81
2024/01/06 02:44:36;;;;;;;;;;;;;;;-0.94;72.68;99800.22;110020;1280;23196;-80
2024/01/06 02:47:03;;;;;;;;;;;;;;;-0.97;72.91;99805.35;110070;1280;23173;-79
2024/01/06 02:49:29;;;;;;;;;;;;;;;-0.96;72.87;99805.20;110026;1278;22388;-80
2024/01/06 02:51:55;;;;;;;;;;;;;;;-1.00;72.86;99800.61;109849;1285;22427;-81
2024/01/06 02:54:21;;;;;;;;;;;;;;;-1.03;72.88;99801.20;109844;1283;23102;-80
2024/01/06 02:56:48;;;;;;;;;;;;;;;-1.02;73.18;99802.80;109745;1285;22468;-80
2024/01/06 02:59:14;;;;;;;;;;;;;;;-0.97;73.21;99796.85;109547;1289;22983;-80
2024/01/06 03:01:40;;;;;;;;;;;;;;;-0.95;73.12;99790.69;109529;1289;22513;-80
2024/01/06 03:04:06;;;;;;;;;;;;;;;-0.96;73.19;99793.27;109263;1287;22479;-80
2024/01/06 03:06:34;;;;;;;;;;;;;;;-0.94;73.42;99796.95;109139;1292;22449;-79
2024/01/06 03:09:00;;;;;;;;;;;;;;;-0.91;73.51;99802.92;109194;1287;23136;-80
2024/01/06 03:11:26;;;;;;;;;;;;;;;-0.90;73.46;99803.30;109751;1287;23206;-79
2024/01/06 03:13:52;;;;;;;;;;;;;;;-0.91;73.24;99801.52;109765;1285;22420;-80
2024/01/06 03:16:19;;;;;;;;;;;;;;;-0.97;73.31;99798.94;109852;1284;22859;-80
2024/01/06 03:18:46;;;;;;;;;;;;;;;-1.00;73.46;99798.72;109885;1284;23194;-79
2024/01/06 03:21:17;;;;;;;;;;;;;;;-1.02;73.62;99795.73;109674;1280;320820;-80
2024/01/06 03:23:43;;;;;;;;;;;;;;;-1.02;73.72;99791.02;109728;1287;22435;-81
2024/01/06 03:26:09;;;;;;;;;;;;;;;-1.06;73.79;99789.73;109686;1283;22428;-85
2024/01/06 03:28:35;;;;;;;;;;;;;;;-1.04;73.95;99789.62;109561;1287;23199;-80
2024/01/06 03:31:02;;;;;;;;;;;;;;;-1.01;73.97;99791.40;109688;1286;23062;-80
2024/01/06 03:33:28;;;;;;;;;;;;;;;-1.01;73.93;99790.90;109166;1292;22454;-79
2024/01/06 03:35:55;;;;;;;;;;;;;;;-0.98;74.16;99785.44;109090;1292;22451;-79
2024/01/06 03:38:21;;;;;;;;;;;;;;;-0.93;74.39;99785.21;109202;1291;23319;-80
2024/01/06 03:40:47;;;;;;;;;;;;;;;-0.91;74.31;99780.77;109214;1286;22504;-79
2024/01/06 03:43:13;;;;;;;;;;;;;;;-0.88;74.62;99786.06;109741;1286;22385;-80
2024/01/06 03:45:39;;;;;;;;;;;;;;;-0.82;74.72;99786.23;109717;1286;22416;-80
2024/01/06 03:48:06;;;;;;;;;;;;;;;-0.79;74.68;99785.09;109724;1286;22484;-80
2024/01/06 03:50:32;;;;;;;;;;;;;;;-0.79;74.62;99784.73;109568;1281;22564;-80
2024/01/06 03:52:58;;;;;;;;;;;;;;;-0.82;74.68;99792.45;110009;1280;22341;-78
2024/01/06 03:55:25;;;;;;;;;;;;;;;-0.82;74.81;99790.91;110109;1276;22394;-80
2024/01/06 03:57:51;;;;;;;;;;;;;;;-0.82;74.73;99799.02;110113;1277;22365;-80
2024/01/06 04:00:17;;;;;;;;;;;;;;;-0.82;74.94;99797.10;110024;1276;22380;-81
2024/01/06 04:02:43;;;;;;;;;;;;;;;-0.80;75.15;99798.76;110047;1280;22385;-80
2024/01/06 04:05:10;;;;;;;;;;;;;;;-0.79;75.13;99797.55;109726;1283;22509;-79
2024/01/06 04:07:36;;;;;;;;;;;;;;;-0.78;75.12;99802.27;109698;1286;22424;-79
2024/01/06 04:10:02;;;;;;;;;;;;;;;-0.74;75.24;99807.70;109720;1286;22384;-81
2024/01/06 04:12:28;;;;;;;;;;;;;;;-0.68;75.36;99809.95;109755;1283;23092;-79
2024/01/06 04:14:54;;;;;;;;;;;;;;;-0.63;75.22;99812.84;109859;1286;22386;-80
2024/01/06 04:17:21;;;;;;;;;;;;;;;-0.61;75.05;99812.90;109719;1286;22467;-81
2024/01/06 04:19:48;;;;;;;;;;;;;;;-0.63;75.08;99814.41;109829;1286;22464;-80
2024/01/06 04:22:14;;;;;;;;;;;;;;;-0.63;75.16;99809.73;109727;1286;22441;-81
2024/01/06 04:24:40;;;;;;;;;;;;;;;-0.65;75.06;99805.38;109720;1283;23331;-80
2024/01/06 04:27:07;;;;;;;;;;;;;;;-0.66;75.03;99803.23;109734;1286;22504;-80
2024/01/06 04:29:33;;;;;;;;;;;;;;;-0.69;75.05;99800.39;109899;1280;22421;-79
2024/01/06 04:31:59;;;;;;;;;;;;;;;-0.71;75.22;99803.27;110039;1280;22405;-79
2024/01/06 04:34:25;;;;;;;;;;;;;;;-0.73;75.43;99804.78;110035;1280;22420;-80
2024/01/06 04:36:51;;;;;;;;;;;;;;;-0.70;75.52;99803.98;110074;1278;22444;-81
2024/01/06 04:39:18;;;;;;;;;;;;;;;-0.70;75.42;99805.21;110037;1280;23134;-83
2024/01/06 04:41:44;;;;;;;;;;;;;;;-0.74;75.34;99814.45;110026;1280;22401;-80
2024/01/06 04:44:10;;;;;;;;;;;;;;;-0.73;75.50;99810.84;110079;1280;22364;-80
2024/01/06 04:46:36;;;;;;;;;;;;;;;-0.71;75.69;99812.80;110077;1278;22482;-80
2024/01/06 04:49:03;;;;;;;;;;;;;;;-0.67;75.84;99813.94;110037;1280;22404;-80
2024/01/06 04:51:30;;;;;;;;;;;;;;;-0.63;75.65;99814.73;110017;1280;22489;-79
2024/01/06 04:53:56;;;;;;;;;;;;;;;-0.65;75.31;99819.88;109991;1280;22407;-80
2024/01/06 04:56:22;;;;;;;;;;;;;;;-0.63;75.43;99827.19;110022;1280;22436;-80
2024/01/06 04:58:48;;;;;;;;;;;;;;;-0.62;75.29;99826.19;110113;1276;22350;-80
2024/01/06 05:01:14;;;;;;;;;;;;;;;-0.60;75.39;99826.60;110022;1280;22366;-80
2024/01/06 05:03:41;;;;;;;;;;;;;;;-0.53;75.72;99823.67;110014;1280;22369;-79
2024/01/06 05:06:07;;;;;;;;;;;;;;;-0.49;75.45;99816.31;110016;1280;22459;-79
2024/01/06 05:08:33;;;;;;;;;;;;;;;-0.51;75.23;99814.36;109985;1280;22484;-79
2024/01/06 05:11:00;;;;;;;;;;;;;;;-0.51;75.52;99811.43;110025;1280;22403;-78
2024/01/06 05:13:26;;;;;;;;;;;;;;;-0.50;75.35;99809.39;110024;1279;22373;-79
2024/01/06 05:15:52;;;;;;;;;;;;;;;-0.52;75.32;99807.95;109755;1284;23206;-78
2024/01/06 05:18:19;;;;;;;;;;;;;;;-0.53;75.32;99817.60;109461;1291;22575;-79
2024/01/06 05:20:45;;;;;;;;;;;;;;;-0.54;75.37;99818.63;109317;1291;22425;-80
2024/01/06 05:23:11;;;;;;;;;;;;;;;-0.55;75.38;99822.06;109323;1291;22418;-80
2024/01/06 05:25:37;;;;;;;;;;;;;;;-0.59;75.21;99825.23;109319;1290;22670;-79
2024/01/06 05:28:04;;;;;;;;;;;;;;;-0.59;75.42;99821.60;109392;1290;22441;-80
2024/01/06 05:30:30;;;;;;;;;;;;;;;-0.62;75.52;99819.96;109358;1290;22523;-80
2024/01/06 05:32:56;;;;;;;;;;;;;;;-0.60;75.92;99824.69;109319;1286;22429;-80
2024/01/06 05:35:23;;;;;;;;;;;;;;;-0.57;76.09;99826.33;109737;1281;23247;-83
2024/01/06 05:37:49;;;;;;;;;;;;;;;-0.55;75.89;99830.85;109738;1286;22461;-80
2024/01/06 05:40:15;;;;;;;;;;;;;;;-0.58;75.74;99826.98;109203;1292;22436;-80
2024/01/06 05:42:41;;;;;;;;;;;;;;;-0.60;75.67;99829.87;108783;1295;22522;-80
2024/01/06 05:45:10;;;;;;;;;;;;;;;-0.61;75.80;99827.43;108657;1298;22426;-80
2024/01/06 05:47:36;;;;;;;;;;;;;;;-0.59;75.99;99835.44;108273;1298;22436;-79
2024/01/06 05:50:02;;;;;;;;;;;;;;;-0.60;75.74;99831.95;108249;1302;23269;-80
2024/01/06 05:52:29;;;;;;;;;;;;;;;-0.58;76.00;99830.61;108277;1302;22437;-78
2024/01/06 05:54:55;;;;;;;;;;;;;;;-0.54;76.15;99834.52;108289;1296;22459;-78
2024/01/06 05:57:21;;;;;;;;;;;;;;;-0.56;75.97;99838.63;108877;1291;22424;-80
2024/01/06 05:59:47;;;;;;;;;;;;;;;-0.56;76.28;99839.83;109392;1286;22441;-80
2024/01/06 06:02:13;;;;;;;;;;;;;;;-0.58;76.09;99841.17;109810;1286;22431;-80
2024/01/06 06:04:39;;;;;;;;;;;;;;;-0.58;76.22;99840.81;109772;1281;22383;-82
2024/01/06 06:07:06;;;;;;;;;;;;;;;-0.61;76.12;99840.58;110000;1280;22459;-80
2024/01/06 06:09:34;;;;;;;;;;;;;;;-0.65;76.15;99848.06;110084;1274;22459;-80
2024/01/06 06:12:00;;;;;;;;;;;;;;;-0.64;76.32;99858.28;110120;1279;22453;-80
2024/01/06 06:14:28;;;;;;;;;;;;;;;-0.63;76.22;99863.16;110114;1273;22381;-85
2024/01/06 06:16:56;;;;;;;;;;;;;;;-0.65;76.19;99862.77;110168;1275;22407;-81
2024/01/06 06:19:22;;;;;;;;;;;;;;;-0.64;76.36;99862.27;110212;1279;22371;-80
2024/01/06 06:21:49;;;;;;;;;;;;;;;-0.62;76.06;99871.15;110025;1279;23019;-80
2024/01/06 06:24:15;;;;;;;;;;;;;;;-0.60;76.20;99873.65;109714;1285;22447;-81
2024/01/06 06:26:41;;;;;;;;;;;;;;;-0.59;76.09;99876.27;109753;1285;22398;-80
2024/01/06 06:29:08;;;;;;;;;;;;;;;-0.61;75.99;99880.54;109139;1292;23149;-80
2024/01/06 06:31:34;;;;;;;;;;;;;;;-0.60;75.94;99876.92;109233;1292;23170;-80
2024/01/06 06:34:00;;;;;;;;;;;;;;;-0.61;75.82;99874.64;109220;1289;22427;-79
2024/01/06 06:36:30;;;;;;;;;;;;;;;-0.61;75.99;99873.08;109462;1292;22509;-78
2024/01/06 06:38:58;;;;;;;;;;;;;;;-0.60;75.94;99875.70;109469;1292;22432;-80
2024/01/06 06:41:24;;;;;;;;;;;;;;;-0.59;76.01;99884.55;109535;1284;23132;-82
2024/01/06 06:43:51;;;;;;;;;;;;;;;-0.58;75.85;99886.83;109780;1279;23155;-83
2024/01/06 06:46:17;;;;;;;;;;;;;;;-0.60;75.68;99889.20;109821;1278;22476;-84
2024/01/06 06:48:43;;;;;;;;;;;;;;;-0.64;75.66;99890.83;110277;1276;22164;-82
2024/01/06 06:51:10;;;;;;;;;;;;;;;-0.65;75.51;99902.20;110254;1278;23104;-82
2024/01/06 06:53:36;;;;;;;;;;;;;;;-0.70;75.37;99912.77;110148;1278;22390;-83
2024/01/06 06:56:03;;;;;;;;;;;;;;;-0.69;75.52;99921.80;110069;1278;22361;-82
2024/01/06 06:58:29;;;;;;;;;;;;;;;-0.65;75.74;99920.88;110150;1278;22425;-82
2024/01/06 07:00:55;;;;;;;;;;;;;;;-0.61;75.57;99919.42;109790;1282;22466;-82
2024/01/06 07:03:22;;;;;;;;;;;;;;;-0.54;75.69;99916.16;109850;1285;22485;-81
2024/01/06 07:05:49;;;;;;;;;;;;;;;-0.51;75.43;99915.40;109772;1278;22490;-84
2024/01/06 07:08:15;;;;;;;;;;;;;;;-0.50;75.35;99914.56;109740;1285;22373;-83
2024/01/06 07:10:41;;;;;;;;;;;;;;;-0.56;75.06;99914.20;109849;1286;22390;-82
2024/01/06 07:13:07;;;;;;;;;;;;;;;-0.58;75.03;99918.31;109676;1286;22460;-82
2024/01/06 07:15:34;;;;;;;;;;;;;;;-0.61;74.98;99919.27;109681;1286;22466;-83
2024/01/06 07:18:00;;;;;;;;;;;;;;;-0.64;74.85;99910.70;109744;1281;22434;-83
2024/01/06 07:20:27;;;;;;;;;;;;;;;-0.67;75.15;99900.42;110059;1276;22470;-84
2024/01/06 07:22:53;;;;;;;;;;;;;;;-0.63;75.25;99893.10;110050;1278;22397;-83
2024/01/06 07:25:21;;;;;;;;;;;;;;;-0.63;74.94;99889.84;110031;1281;22370;-83
2024/01/06 07:27:48;;;;;;;;;;;;;;;-0.70;74.68;99894.28;110062;1278;22387;-84
2024/01/06 07:30:17;;;;;;;;;;;;;;;-0.74;74.94;99899.19;110038;1278;22370;-84
2024/01/06 07:32:43;;;;;;;;;;;;;;;-0.75;74.78;99904.19;109754;1286;22474;-83
2024/01/06 07:35:09;;;;;;;;;;;;;;;-0.75;74.97;99907.45;109687;1287;23142;-84
2024/01/06 07:37:36;;;;;;;;;;;;;;;-0.70;75.12;99914.86;109768;1287;22396;-83
2024/01/06 07:40:02;;;;;;;;;;;;;;;-0.63;75.24;99919.20;109597;1287;22438;-85
2024/01/06 07:42:29;;;;;;;;;;;;;;;-0.56;75.31;99922.87;109329;1290;23209;-84
2024/01/06 07:44:55;;;;;;;;;;;;;;;-0.52;75.10;99934.92;109468;1290;22452;-84
2024/01/06 07:47:21;;;;;;;;;;;;;;;-0.55;74.75;99932.75;109523;1289;22428;-84
2024/01/06 07:49:48;;;;;;;;;;;;;;;-0.57;74.62;99942.56;108871;1296;22446;-84
2024/01/06 07:52:14;;;;;;;;;;;;;;;-0.58;74.72;99946.34;108704;1296;22480;-87
2024/01/06 07:54:40;;;;;;;;;;;;;;;-0.58;74.76;99949.29;108853;1296;23204;-83
2024/01/06 07:57:06;;;;;;;;;;;;;;;-0.60;74.78;99951.80;109202;1290;22424;-81
2024/01/06 07:59:32;;;;;;;;;;;;;;;-0.58;74.97;99956.02;109482;1286;22503;-84
2024/01/06 08:01:59;;;;;;;;;;;;;;;-0.56;74.82;99953.66;109833;1285;22444;-86
2024/01/06 08:04:25;;;;;;;;;;;;;;;-0.56;74.79;99954.86;109855;1285;22466;-86
2024/01/06 08:06:51;;;;;;;;;;;;;;;-0.55;74.83;99950.73;109844;1282;22382;-85
2024/01/06 08:09:23;;;;;;;;;;;;;;;-0.57;74.74;99958.48;110127;1281;22444;-86
2024/01/06 08:11:50;;;;;;;;;;;;;;;-0.57;74.68;99956.05;110111;1278;22380;-85
2024/01/06 08:14:17;;;;;;;;;;;;;;;-0.59;74.82;99958.59;109992;1281;22399;-86
2024/01/06 08:16:44;;;;;;;;;;;;;;;-0.58;74.67;99957.94;110205;1278;22448;-86
2024/01/06 08:19:10;;;;;;;;;;;;;;;-0.55;74.83;99954.37;110063;1277;22418;-80
2024/01/06 08:21:38;;;;;;;;;;;;;;;-0.48;74.88;99955.08;110215;1276;22332;-85
2024/01/06 08:24:07;;;;;;;;;;;;;;;-0.42;74.72;99954.57;110147;1280;22355;-84
2024/01/06 08:26:33;;;;;;;;;;;;;;;-0.41;74.45;99957.35;110165;1279;22328;-83
2024/01/06 08:29:00;;;;;;;;;;;;;;;-0.41;74.38;99959.27;109993;1281;22480;-85
2024/01/06 08:31:26;;;;;;;;;;;;;;;-0.40;74.35;99963.98;110122;1280;22409;-84
2024/01/06 08:33:52;;;;;;;;;;;;;;;-0.42;74.35;99965.64;110134;1279;22337;-83
2024/01/06 08:36:19;;;;;;;;;;;;;;;-0.43;74.41;99975.80;110129;1279;22370;-82
2024/01/06 08:38:45;;;;;;;;;;;;;;;-0.42;74.53;99980.85;110265;1276;22452;-90
2024/01/06 08:41:34;;;;;;;;;;;;;;;-0.43;74.18;99985.52;110290;1276;22412;-91
2024/01/06 08:44:24;;;;;;;;;;;;;;;-0.50;74.21;99987.04;109845;1287;22444;-91
2024/01/06 08:48:34;;;;;;;;;;;;;;;-0.49;74.39;99993.64;107007;1281;544122;-90
2024/01/06 08:51:13;;;;;;;;;;;;;;;-0.54;74.26;99998.70;108343;1290;22549;-90
2024/01/06 08:54:10;;;;;;;;;;;;;;;-0.55;74.53;99999.52;108784;1282;25413;-91
2024/01/06 08:57:08;;;;;;;;;;;;;;;-0.56;74.33;100000.88;108328;1282;24245;-91
2024/01/06 09:00:03;;;;;;;;;;;;;;;-0.52;74.56;100007.23;107807;1288;24272;-91
2024/01/06 09:03:32;;;;;;;;;;;;;;;-0.45;74.46;100011.74;106777;1291;25890;-90
2024/01/06 09:06:25;;;;;;;;;;;;;;;-0.44;74.31;100009.36;107416;1292;22525;-90
2024/01/06 09:09:33;;;;;;;;;;;;;;;-0.45;74.19;100007.25;107485;1291;24014;-90
2024/01/06 09:15:03;;;;;;;;;;;;;;;;;;;;;
2024/01/06 09:17:52;;;;;;;;;;;;;;;-0.48;74.28;100012.36;107826;1279;24243;-91
2024/01/06 09:20:23;;;;;;;;;;;;;;;-0.48;74.11;100008.39;107794;1277;22525;-93
2024/01/06 09:23:16;;;;;;;;;;;;;;;-0.59;74.02;100010.66;107698;1279;22523;-86
2024/01/06 09:26:16;;;;;;;;;;;;;;;-0.63;74.12;100014.36;107988;1279;22492;-82
2024/01/06 09:28:44;;;;;;;;;;;;;;;-0.65;74.01;100019.46;106963;1279;24227;-86
2024/01/06 09:31:11;;;;;;;;;;;;;;;-0.65;74.25;100015.31;106811;1276;23155;-85
2024/01/06 09:33:38;;;;;;;;;;;;;;;-0.65;74.30;100015.33;106783;1279;22513;-82
2024/01/06 09:36:06;;;;;;;;;;;;;;;-0.61;74.48;100009.40;106667;1273;25411;-84
2024/01/06 09:38:33;;;;;;;;;;;;;;;-0.58;74.54;100009.13;106674;1279;24279;-83
2024/01/06 09:41:00;;;;;;;;;;;;;;;-0.55;74.62;100012.84;110062;1274;22416;-82
2024/01/06 09:43:27;;;;;;;;;;;;;;;-0.58;74.40;100007.38;110205;1276;22368;-81
2024/01/06 09:45:58;;;;;;;;;;;;;;;-0.57;74.57;100010.02;110191;1279;22470;-82
2024/01/06 09:48:28;;;;;;;;;;;;;;;-0.53;74.87;100014.48;110077;1279;22314;-82
2024/01/06 09:50:56;;;;;;;;;;;;;;;-0.47;74.87;100015.84;110061;1279;22473;-83
2024/01/06 09:53:28;;;;;;;;;;;;;;;-0.43;74.75;100020.10;110061;1279;22407;-81
2024/01/06 09:55:56;;;;;;;;;;;;;;;-0.43;74.89;100018.92;109875;1285;22478;-87
2024/01/06 09:58:23;;;;;;;;;;;;;;;-0.43;74.87;100021.83;109851;1285;23175;-83
2024/01/06 10:00:50;;;;;;;;;;;;;;;-0.44;74.58;100021.64;109834;1280;22415;-86
2024/01/06 10:03:18;;;;;;;;;;;;;;;-0.40;74.71;100021.92;109814;1279;22522;-86
2024/01/06 10:05:48;;;;;;;;;;;;;;;-0.32;74.95;100019.05;109859;1282;22507;-83
2024/01/06 10:08:17;;;;;;;;;;;;;;;-0.25;74.98;100016.48;109769;1284;22528;-83
2024/01/06 10:10:44;;;;;;;;;;;;;;;-0.25;74.42;100022.03;109475;1290;22446;-83
2024/01/06 10:13:11;;;;;;;;;;;;;;;-0.28;74.58;100017.61;109487;1286;22460;-84
2024/01/06 10:15:38;;;;;;;;;;;;;;;-0.24;74.91;100018.23;109747;1283;22406;-83
2024/01/06 10:18:05;;;;;;;;;;;;;;;-0.20;75.04;100015.61;109791;1286;22430;-85
2024/01/06 10:20:33;;;;;;;;;;;;;;;-0.20;74.83;100024.42;109764;1279;23131;-81
2024/01/06 10:23:05;;;;;;;;;;;;;;;-0.21;74.96;100026.30;109699;1286;23139;-80
2024/01/06 10:25:32;;;;;;;;;;;;;;;-0.27;74.63;100024.71;109728;1284;22471;-83
2024/01/06 10:28:00;;;;;;;;;;;;;;;-0.33;74.72;100026.81;109764;1280;22575;-84
2024/01/06 10:30:27;;;;;;;;;;;;;;;-0.39;74.74;100025.09;109950;1279;22399;-80
2024/01/06 10:32:54;;;;;;;;;;;;;;;-0.44;74.71;100025.10;109966;1280;22298;-81
2024/01/06 10:35:24;;;;;;;;;;;;;;;-0.42;75.23;100025.00;110052;1279;22295;-82
2024/01/06 10:37:51;;;;;;;;;;;;;;;-0.36;75.36;100024.48;110247;1279;22292;-89
2024/01/06 10:40:19;;;;;;;;;;;;;;;-0.32;75.38;100025.27;109958;1281;22441;-82
2024/01/06 10:42:46;;;;;;;;;;;;;;;-0.31;75.34;100029.80;109805;1284;22512;-86
2024/01/06 10:45:14;;;;;;;;;;;;;;;-0.32;75.41;100030.30;109902;1284;23363;-84
2024/01/06 10:47:43;;;;;;;;;;;;;;;-0.30;75.64;100031.94;109871;1267;23384;-85
2024/01/06 10:50:10;;;;;;;;;;;;;;;-0.25;75.62;100032.76;109684;1278;22461;-86
2024/01/06 10:52:38;;;;;;;;;;;;;;;-0.25;75.42;100025.81;109823;1282;23226;-86
2024/01/06 10:55:05;;;;;;;;;;;;;;;-0.25;75.46;100022.20;109851;1285;22444;-84
2024/01/06 10:57:33;;;;;;;;;;;;;;;-0.26;75.47;100020.44;109942;1280;22440;-85
2024/01/06 11:00:00;;;;;;;;;;;;;;;-0.29;75.33;100028.64;109979;1280;22408;-85
2024/01/06 11:02:29;;;;;;;;;;;;;;;-0.30;75.57;100028.45;110019;1280;22495;-84
2024/01/06 11:04:59;;;;;;;;;;;;;;;-0.29;75.59;100021.89;110041;1279;23313;-87
2024/01/06 11:07:31;;;;;;;;;;;;;;;-0.29;75.70;100016.36;110034;1280;22383;-88
2024/01/06 11:10:08;;;;;;;;;;;;;;;-0.28;75.73;100011.02;109920;1284;22606;-86
2024/01/06 13:01:31;;;;;;;;;;;;;;;0.17;72.16;100062.83;110128;1276;23174;-81
2024/01/06 13:12:00;;;;;;;;;;;;;;;-0.05;70.85;100090.79;110118;1279;22318;-84
2024/01/06 13:14:29;;;;;;;;;;;;;;;-0.15;70.73;100091.56;110130;1279;22374;-83
2024/01/06 13:16:57;;;;;;;;;;;;;;;-0.19;70.68;100096.29;109837;1286;22416;-83
2024/01/06 13:19:27;;;;;;;;;;;;;;;-0.21;70.45;100096.36;109829;1285;22425;-84
2024/01/06 13:25:52;;;;;;;;;;;;;;;-0.32;69.82;100107.64;109864;1285;22412;-83
2024/01/06 13:28:44;;;;;;;;;;;;;;;-0.35;69.57;100106.00;109533;1289;22421;-83
2024/01/06 13:35:04;;;;;;;;;;;;;;;-0.36;69.31;100112.91;109895;1284;22464;-84
2024/01/06 13:37:33;;;;;;;;;;;;;;;-0.36;69.28;100108.75;109994;1284;22325;-85
2024/01/06 13:40:00;;;;;;;;;;;;;;;-0.31;69.35;100106.65;109781;1288;22482;-85
2024/01/06 13:42:30;;;;;;;;;;;;;;;-0.22;69.35;100115.06;109779;1288;22384;-86
2024/01/06 13:53:24;;;;;;;;;;;;;;;-0.15;67.95;100113.71;109832;1285;22474;-85
2024/01/06 13:59:51;;;;;;;;;;;;;;;-0.21;67.00;100113.18;110185;1279;22448;-86
2024/01/06 14:06:11;;;;;;;;;;;;;;;-0.35;66.64;100127.30;110183;1279;23177;-87
2024/01/06 14:08:52;;;;;;;;;;;;;;;-0.39;66.68;100131.00;110228;1279;22309;-85
2024/01/06 14:11:20;;;;;;;;;;;;;;;-0.39;66.71;100138.08;110065;1281;22417;-85
2024/01/06 14:13:49;;;;;;;;;;;;;;;-0.38;66.79;100141.73;109979;1281;22504;-84
2024/01/06 14:16:16;;;;;;;;;;;;;;;-0.37;66.74;100146.80;110004;1281;23204;-85
2024/01/06 14:18:44;;;;;;;;;;;;;;;-0.38;66.62;100150.23;109986;1281;22454;-82
2024/01/06 14:21:19;;;;;;;;;;;;;;;-0.35;66.45;100149.79;109908;1283;22407;-83
2024/01/06 14:24:08;;;;;;;;;;;;;;;-0.30;66.44;100150.79;109945;1284;22484;-83
2024/01/06 14:26:35;;;;;;;;;;;;;;;-0.25;66.40;100149.39;109897;1284;22403;-84
2024/01/06 14:29:03;;;;;;;;;;;;;;;-0.19;66.53;100147.85;109902;1281;23071;-84
2024/01/06 14:31:31;;;;;;;;;;;;;;;-0.18;66.39;100145.80;109633;1287;23358;-84
2024/01/06 14:33:58;;;;;;;;;;;;;;;-0.17;66.28;100146.88;109846;1287;22426;-84
2024/01/06 14:36:27;;;;;;;;;;;;;;;-0.18;66.21;100154.13;109431;1291;22437;-83
2024/01/06 14:38:56;;;;;;;;;;;;;;;-0.18;66.14;100154.48;109086;1294;23287;-85
2024/01/06 14:41:23;;;;;;;;;;;;;;;-0.19;66.26;100153.91;109365;1286;22457;-83
2024/01/06 14:43:50;;;;;;;;;;;;;;;-0.17;66.40;100150.84;108816;1297;22529;-82
2024/01/06 14:46:18;;;;;;;;;;;;;;;-0.20;66.14;100150.25;108975;1297;22882;-84
2024/01/06 14:48:51;;;;;;;;;;;;;;;-0.24;65.79;100153.75;108945;1292;22466;-86
2024/01/06 14:51:20;;;;;;;;;;;;;;;-0.30;65.57;100157.57;109291;1292;22414;-84
2024/01/06 14:53:50;;;;;;;;;;;;;;;-0.35;65.61;100158.96;108951;1292;22483;-85
2024/01/06 14:56:17;;;;;;;;;;;;;;;-0.39;65.59;100162.48;109138;1293;22461;-84
2024/01/06 14:58:44;;;;;;;;;;;;;;;-0.42;65.52;100167.02;109345;1293;22425;-86
2024/01/06 15:01:12;;;;;;;;;;;;;;;-0.46;65.47;100168.81;109246;1289;22436;-85
2024/01/06 15:07:35;;;;;;;;;;;;;;;-0.50;64.84;100176.64;109762;1290;22419;-85
2024/01/06 15:22:30;;;;;;;;;;;;;;;-0.59;64.37;100189.33;109984;1286;22455;-85